Airfield :
LOGIN :

Register | Disclaimer

   EN    FR    IT 

 










Legend :    VFR   Marginal VFR   IFR   Intensive IFR   Very Intensive IFR
Visi :
Ceiling :
>= 8 km
>= 3000ft
5 to 8 km
1000 to 3000 ft
1500m to 5 km
500 to 1000 ft
800 to 1500m
200 to 500 ft
< 800m
< 200 ft
Symbols :   Thunderstorms  Fog  Heavy snow  Heavy precipitations  Wind > 20 kt
SIGMETs :     Misc.  Thunderstorms  Icing  Turbulence  Mountain Waves  Volcanic Ashes







- Airport Elevation : 28 ft
- IATA code : SOZ
- Download approach charts


LFKS - Solenzara

CURRENT METAR :
  • 170500Z AUTO 27006KT 9999 FEW076 07/02 Q1016

EXPIRED METARs :
  • 170430Z AUTO 28006KT 9999 FEW078 07/02 Q1016
  • 170400Z AUTO 29005KT 260V330 9999 BKN080 07/02 Q1017
  • 170330Z AUTO 27006KT 9999 NSC 07/02 Q1017
  • 170300Z AUTO 00000KT 9999 FEW076 06/02 Q1017
  • 170230Z AUTO 27004KT 250V310 9999 BKN076 08/02 Q1017

TAF TAF LFKS
Valid from the 16 at 15:00 until the 17 at 15:00 UTC


161400Z 1615/1715 16015KT CAVOK
BECMG 1617/1619 28005KT
No reported NOTAMs for that airfield.



MET'MAP, your aeronautical weather chart ! - Copyright ORBIFLY December 2007 - Disclaimer

ORBIFLY MET'MAP TEAM :

Programming & Development : Alexandra Zaïnal
Concept & Development : Baudouin d'Aumeries
Co-Development & Prog : Marc-Olivier Méhu
Technical & hardware support : Manuel Goepfert

Contact : metmap@orbifly.com




SOURCES & CREDITS :

   NOAA